MSC Bari — A8YD3 — position and weather

sailwx.info

Track history (hours):
 
Tides and Currents Weather Stations Pressure Air Temp Water Temp Dewpoint Dewpoint Depression Visibility Wind Speed Wind Dir Waves Ship Positions

MSC Bari

Last reported at 2014-Aug-23 03:08 UTC. Time now 2014-Aug-29 03:29 UTC.
Position N 01°17' E 103°45'.

Length 366 m; draft 13.5 m.

Type: Ship (hazmat cat A). MMSI: 636092188.

Date/timePositionNaut miles runAvg speedWind from/ knotsBaromVisibWave heightAir tempDewpointWater temp
2014-Aug-23 03:08N 01°17' E 103°45'0 0.0
2014-Aug-23 02:26N 01°17' E 103°45'0 0.0
2014-Aug-23 01:23N 01°17' E 103°45'0 0.0
2014-Aug-23 00:29N 01°17' E 103°45'0 0.0
2014-Aug-22 23:32N 01°17' E 103°45'0 0.0
2014-Aug-22 22:32N 01°17' E 103°45'0 0.0
2014-Aug-22 20:32N 01°17' E 103°45'0 0.0
2014-Aug-22 19:32N 01°17' E 103°45'0 0.0
2014-Aug-22 18:26N 01°17' E 103°45'0 0.0
2014-Aug-22 17:23N 01°17' E 103°45'0 0.0
2014-Aug-22 15:32N 01°17' E 103°45'0 0.0
2014-Aug-22 14:32N 01°17' E 103°45'0 0.0
2014-Aug-22 13:32N 01°17' E 103°45'0 0.0
2014-Aug-22 12:23N 01°17' E 103°45'0 0.0
2014-Aug-22 11:32N 01°17' E 103°45'0 0.0
2014-Aug-22 10:17N 01°17' E 103°45'0 0.0
2014-Aug-22 09:29N 01°17' E 103°45'0 0.0
2014-Aug-22 08:26N 01°17' E 103°45'0 0.0
2014-Aug-22 07:29N 01°17' E 103°45'0 0.1
2014-Aug-22 06:23N 01°17' E 103°45'0 0.1
2014-Aug-22 05:29N 01°17' E 103°45'0 0.0
2014-Aug-22 04:32N 01°17' E 103°45'0 0.0
2014-Aug-22 03:32N 01°17' E 103°45'0 0.0
2014-Aug-22 02:32N 01°17' E 103°45'0 0.0
2014-Aug-22 00:32N 01°17' E 103°45'0 0.0
2014-Aug-21 22:32N 01°17' E 103°45'0 0.0
2014-Aug-21 21:32N 01°17' E 103°45'0 0.1
2014-Aug-21 20:33N 01°17' E 103°45'2 1.8
2014-Aug-21 19:33N 01°15' E 103°47'1 0.8
2014-Aug-21 18:33N 01°15' E 103°47'2 1.7
2014-Aug-21 17:33N 01°13' E 103°48'5 5.4
2014-Aug-21 16:33N 01°13' E 103°53'  
2014-Aug-19 06:00N 16°18' E 112°54'35918.0 180 / 211009.0 5.4 2.029.024.930.0
2014-Aug-18 10:06N 22°09' E 114°13'1111.5
2014-Aug-18 09:09N 22°18' E 114°06'6 9.3
2014-Aug-18 08:27N 22°21' E 113°59'8 9.4
2014-Aug-18 07:33N 22°27' E 113°53'1 1.2
2014-Aug-18 06:30N 22°28' E 113°53'0 0.0
2014-Aug-18 05:30N 22°28' E 113°53'0 0.0
2014-Aug-18 04:30N 22°28' E 113°53'0 0.0
2014-Aug-18 03:30N 22°28' E 113°53'0 0.0
2014-Aug-18 02:30N 22°28' E 113°53'0 0.0
2014-Aug-18 01:30N 22°28' E 113°53'0 0.0
2014-Aug-18 00:30N 22°28' E 113°53'0 0.0
2014-Aug-17 18:30N 22°28' E 113°53'0 0.0
2014-Aug-17 16:24N 22°28' E 113°53'0 0.0
2014-Aug-17 15:09N 22°28' E 113°53'0 0.0
2014-Aug-17 14:15N 22°28' E 113°53'0 0.5
2014-Aug-17 13:33N 22°27' E 113°53'143 5.7
2014-Aug-16 12:33N 22°37' E 116°27'1818.1
2014-Aug-16 11:33N 22°46' E 116°44'1818.2
2014-Aug-16 10:33N 22°55' E 117°01'1818.1
2014-Aug-16 09:33N 23°06' E 117°17'1917.3
2014-Aug-16 08:28N 23°18' E 117°33'1717.3
2014-Aug-16 07:30N 23°28' E 117°47'1617.3
2014-Aug-16 06:33N 23°38' E 118°01'1717.2
2014-Aug-16 05:33N 23°48' E 118°17'1717.4
2014-Aug-16 04:33N 23°59' E 118°32'1716.6
2014-Aug-16 03:32N 24°09' E 118°46'2116.8
2014-Aug-16 02:16N 24°23' E 119°04'1216.7
2014-Aug-16 01:33N 24°30' E 119°15'35816.9
2014-Aug-15 04:23N 29°32' E 122°50'1214.5
2014-Aug-15 03:33N 29°44' E 122°48'1515.0
2014-Aug-15 02:31N 29°59' E 122°50'1616.3
2014-Aug-15 01:33N 30°15' E 122°48'1716.6
2014-Aug-15 00:33N 30°29' E 122°39'1817.8
2014-Aug-14 23:33N 30°33' E 122°19'1312.9
2014-Aug-14 22:33N 30°37' E 122°04'0 0.0
2014-Aug-14 11:14N 30°37' E 122°04'0 0.6
2014-Aug-14 10:32N 30°37' E 122°04'1 1.4
2014-Aug-14 09:33N 30°36' E 122°05'9 9.5
2014-Aug-14 08:33N 30°33' E 122°16'10 9.6
2014-Aug-14 07:32N 30°31' E 122°27'8 8.6
2014-Aug-14 06:33N 30°27' E 122°36'1 0.7
2014-Aug-14 05:25N 30°27' E 122°36'0 0.0
2014-Aug-14 04:13N 30°27' E 122°36'0 0.0
2014-Aug-14 03:31N 30°27' E 122°36'0 0.0
2014-Aug-14 02:31N 30°27' E 122°36'0 0.1
2014-Aug-14 01:31N 30°27' E 122°36'0 0.1
2014-Aug-14 00:25N 30°27' E 122°37'0 0.1
2014-Aug-13 23:31N 30°27' E 122°37'0 0.0
2014-Aug-13 22:31N 30°27' E 122°37'0 0.0
2014-Aug-13 21:31N 30°27' E 122°37'0 0.0
2014-Aug-13 20:31N 30°27' E 122°37'0 0.1
2014-Aug-13 19:25N 30°27' E 122°37'0 0.1
2014-Aug-13 18:25N 30°27' E 122°37'0 0.1
2014-Aug-13 17:31N 30°27' E 122°36'0 0.1
2014-Aug-13 16:31N 30°27' E 122°36'0 0.0
2014-Aug-13 15:31N 30°27' E 122°36'0 0.1
2014-Aug-13 14:29N 30°27' E 122°36'0 0.1
2014-Aug-13 13:16N 30°27' E 122°36'0 0.1
2014-Aug-13 12:25N 30°27' E 122°36'0 0.1
2014-Aug-13 11:13N 30°27' E 122°37'0 0.1
2014-Aug-13 10:31N 30°27' E 122°37'0 0.0
2014-Aug-13 09:31N 30°27' E 122°37'0 0.0
2014-Aug-13 08:31N 30°27' E 122°37'0 0.1
2014-Aug-13 07:31N 30°27' E 122°37'0 0.1
2014-Aug-13 06:31N 30°27' E 122°37'0 0.1
2014-Aug-13 05:31N 30°27' E 122°37'0 0.1
2014-Aug-13 04:31N 30°27' E 122°36'0 0.1
2014-Aug-13 03:31N 30°27' E 122°36'  
Track history (hours):
 
Tides and Currents Weather Stations Pressure Air Temp Water Temp Dewpoint Dewpoint Depression Visibility Wind Speed Wind Dir Waves Ship Positions

MSC Bari

Last reported at 2014-Aug-23 03:08 UTC. Time now 2014-Aug-29 03:29 UTC.
Position N 01°17' E 103°45'.

Length 366 m; draft 13.5 m.

Type: Ship (hazmat cat A). MMSI: 636092188.

Date/timePositionNaut miles runAvg speedWind from/ knotsBaromVisibWave heightAir tempDewpointWater temp
2014-Aug-23 03:08N 01°17' E 103°45'0 0.0
2014-Aug-23 02:26N 01°17' E 103°45'0 0.0
2014-Aug-23 01:23N 01°17' E 103°45'0 0.0
2014-Aug-23 00:29N 01°17' E 103°45'0 0.0
2014-Aug-22 23:32N 01°17' E 103°45'0 0.0
2014-Aug-22 22:32N 01°17' E 103°45'0 0.0
2014-Aug-22 20:32N 01°17' E 103°45'0 0.0
2014-Aug-22 19:32N 01°17' E 103°45'0 0.0
2014-Aug-22 18:26N 01°17' E 103°45'0 0.0
2014-Aug-22 17:23N 01°17' E 103°45'0 0.0
2014-Aug-22 15:32N 01°17' E 103°45'0 0.0
2014-Aug-22 14:32N 01°17' E 103°45'0 0.0
2014-Aug-22 13:32N 01°17' E 103°45'0 0.0
2014-Aug-22 12:23N 01°17' E 103°45'0 0.0
2014-Aug-22 11:32N 01°17' E 103°45'0 0.0
2014-Aug-22 10:17N 01°17' E 103°45'0 0.0
2014-Aug-22 09:29N 01°17' E 103°45'0 0.0
2014-Aug-22 08:26N 01°17' E 103°45'0 0.0
2014-Aug-22 07:29N 01°17' E 103°45'0 0.1
2014-Aug-22 06:23N 01°17' E 103°45'0 0.1
2014-Aug-22 05:29N 01°17' E 103°45'0 0.0
2014-Aug-22 04:32N 01°17' E 103°45'0 0.0
2014-Aug-22 03:32N 01°17' E 103°45'0 0.0
2014-Aug-22 02:32N 01°17' E 103°45'0 0.0
2014-Aug-22 00:32N 01°17' E 103°45'0 0.0
2014-Aug-21 22:32N 01°17' E 103°45'0 0.0
2014-Aug-21 21:32N 01°17' E 103°45'0 0.1
2014-Aug-21 20:33N 01°17' E 103°45'2 1.8
2014-Aug-21 19:33N 01°15' E 103°47'1 0.8
2014-Aug-21 18:33N 01°15' E 103°47'2 1.7
2014-Aug-21 17:33N 01°13' E 103°48'5 5.4
2014-Aug-21 16:33N 01°13' E 103°53'  
2014-Aug-19 06:00N 16°18' E 112°54'35918.0 180 / 211009.0 5.4 2.029.024.930.0
2014-Aug-18 10:06N 22°09' E 114°13'1111.5
2014-Aug-18 09:09N 22°18' E 114°06'6 9.3
2014-Aug-18 08:27N 22°21' E 113°59'8 9.4
2014-Aug-18 07:33N 22°27' E 113°53'1 1.2
2014-Aug-18 06:30N 22°28' E 113°53'0 0.0
2014-Aug-18 05:30N 22°28' E 113°53'0 0.0
2014-Aug-18 04:30N 22°28' E 113°53'0 0.0
2014-Aug-18 03:30N 22°28' E 113°53'0 0.0
2014-Aug-18 02:30N 22°28' E 113°53'0 0.0
2014-Aug-18 01:30N 22°28' E 113°53'0 0.0
2014-Aug-18 00:30N 22°28' E 113°53'0 0.0
2014-Aug-17 18:30N 22°28' E 113°53'0 0.0
2014-Aug-17 16:24N 22°28' E 113°53'0 0.0
2014-Aug-17 15:09N 22°28' E 113°53'0 0.0
2014-Aug-17 14:15N 22°28' E 113°53'0 0.5
2014-Aug-17 13:33N 22°27' E 113°53'143 5.7
2014-Aug-16 12:33N 22°37' E 116°27'1818.1
2014-Aug-16 11:33N 22°46' E 116°44'1818.2
2014-Aug-16 10:33N 22°55' E 117°01'1818.1
2014-Aug-16 09:33N 23°06' E 117°17'1917.3
2014-Aug-16 08:28N 23°18' E 117°33'1717.3
2014-Aug-16 07:30N 23°28' E 117°47'1617.3
2014-Aug-16 06:33N 23°38' E 118°01'1717.2
2014-Aug-16 05:33N 23°48' E 118°17'1717.4
2014-Aug-16 04:33N 23°59' E 118°32'1716.6
2014-Aug-16 03:32N 24°09' E 118°46'2116.8
2014-Aug-16 02:16N 24°23' E 119°04'1216.7
2014-Aug-16 01:33N 24°30' E 119°15'35816.9
2014-Aug-15 04:23N 29°32' E 122°50'1214.5
2014-Aug-15 03:33N 29°44' E 122°48'1515.0
2014-Aug-15 02:31N 29°59' E 122°50'1616.3
2014-Aug-15 01:33N 30°15' E 122°48'1716.6
2014-Aug-15 00:33N 30°29' E 122°39'1817.8
2014-Aug-14 23:33N 30°33' E 122°19'1312.9
2014-Aug-14 22:33N 30°37' E 122°04'0 0.0
2014-Aug-14 11:14N 30°37' E 122°04'0 0.6
2014-Aug-14 10:32N 30°37' E 122°04'1 1.4
2014-Aug-14 09:33N 30°36' E 122°05'9 9.5
2014-Aug-14 08:33N 30°33' E 122°16'10 9.6
2014-Aug-14 07:32N 30°31' E 122°27'8 8.6
2014-Aug-14 06:33N 30°27' E 122°36'1 0.7
2014-Aug-14 05:25N 30°27' E 122°36'0 0.0
2014-Aug-14 04:13N 30°27' E 122°36'0 0.0
2014-Aug-14 03:31N 30°27' E 122°36'0 0.0
2014-Aug-14 02:31N 30°27' E 122°36'0 0.1
2014-Aug-14 01:31N 30°27' E 122°36'0 0.1
2014-Aug-14 00:25N 30°27' E 122°37'0 0.1
2014-Aug-13 23:31N 30°27' E 122°37'0 0.0
2014-Aug-13 22:31N 30°27' E 122°37'0 0.0
2014-Aug-13 21:31N 30°27' E 122°37'0 0.0
2014-Aug-13 20:31N 30°27' E 122°37'0 0.1
2014-Aug-13 19:25N 30°27' E 122°37'0 0.1
2014-Aug-13 18:25N 30°27' E 122°37'0 0.1
2014-Aug-13 17:31N 30°27' E 122°36'0 0.1
2014-Aug-13 16:31N 30°27' E 122°36'0 0.0
2014-Aug-13 15:31N 30°27' E 122°36'0 0.1
2014-Aug-13 14:29N 30°27' E 122°36'0 0.1
2014-Aug-13 13:16N 30°27' E 122°36'0 0.1
2014-Aug-13 12:25N 30°27' E 122°36'0 0.1
2014-Aug-13 11:13N 30°27' E 122°37'0 0.1
2014-Aug-13 10:31N 30°27' E 122°37'0 0.0
2014-Aug-13 09:31N 30°27' E 122°37'0 0.0
2014-Aug-13 08:31N 30°27' E 122°37'0 0.1
2014-Aug-13 07:31N 30°27' E 122°37'0 0.1
2014-Aug-13 06:31N 30°27' E 122°37'0 0.1
2014-Aug-13 05:31N 30°27' E 122°37'0 0.1
2014-Aug-13 04:31N 30°27' E 122°36'0 0.1
2014-Aug-13 03:31N 30°27' E 122°36'  

Dump ship's entire track history